Kalaheo, Hawaii
Current Conditions -  °F | °C
As of 7:53 PM on Sunday 25 Jan 2015 (Local Time) from PHLI Reporting Station
Few Clouds Few Clouds  
Wind Chill: 71°   Ceiling: Unl
Heat Index: 71°   Visibility: 10mi
Dew Point: 58°   Wind: 16mph
Humidity: 63%   Direction: 40°NE
Pressure: 30.06"   Gusts: NA
Location:  21.91°N, 159.5°W
Report Text: PHLI 260553Z 04014KT 10SM FEW047 22/14 A3006 RMK AO2 SLP177 T02170144 10239 20217 53012 $
Loading
Personal Weather Stations






























Interactive Weather Map New forecast layout! Learn more

10-Day Weather Forecast

Advertisements
Track Severe Weather on mobile